sensor_id;sensor_type;location;lat;lon;timestamp;temperature;humidity
4406;DHT22;2216;53.806;11.598;2022-08-20T00:00:17;20.50;59.60
4406;DHT22;2216;53.806;11.598;2022-08-20T00:02:54;20.50;59.60
4406;DHT22;2216;53.806;11.598;2022-08-20T00:05:47;20.50;59.60
4406;DHT22;2216;53.806;11.598;2022-08-20T00:08:17;20.40;59.60
4406;DHT22;2216;53.806;11.598;2022-08-20T00:10:44;20.30;59.70
4406;DHT22;2216;53.806;11.598;2022-08-20T00:13:13;20.40;59.70
4406;DHT22;2216;53.806;11.598;2022-08-20T00:15:41;20.30;59.50
4406;DHT22;2216;53.806;11.598;2022-08-20T00:18:07;20.30;59.60
4406;DHT22;2216;53.806;11.598;2022-08-20T00:20:37;20.30;59.70
4406;DHT22;2216;53.806;11.598;2022-08-20T00:23:05;20.30;59.70
4406;DHT22;2216;53.806;11.598;2022-08-20T00:25:32;20.30;59.80
4406;DHT22;2216;53.806;11.598;2022-08-20T00:27:58;20.20;59.70
4406;DHT22;2216;53.806;11.598;2022-08-20T00:30:25;20.20;59.80
4406;DHT22;2216;53.806;11.598;2022-08-20T00:32:59;20.20;59.80
4406;DHT22;2216;53.806;11.598;2022-08-20T00:35:30;20.10;59.70
4406;DHT22;2216;53.806;11.598;2022-08-20T00:37:58;20.10;59.70
4406;DHT22;2216;53.806;11.598;2022-08-20T00:40:28;20.10;59.70
4406;DHT22;2216;53.806;11.598;2022-08-20T00:42:59;20.10;59.80
4406;DHT22;2216;53.806;11.598;2022-08-20T00:45:28;20.10;59.90
4406;DHT22;2216;53.806;11.598;2022-08-20T00:47:55;20.10;60.00
4406;DHT22;2216;53.806;11.598;2022-08-20T00:50:26;20.00;60.00
4406;DHT22;2216;53.806;11.598;2022-08-20T00:52:57;20.10;59.90
4406;DHT22;2216;53.806;11.598;2022-08-20T00:55:25;20.00;60.00
4406;DHT22;2216;53.806;11.598;2022-08-20T00:57:55;20.00;59.90
4406;DHT22;2216;53.806;11.598;2022-08-20T01:00:29;20.00;59.80
4406;DHT22;2216;53.806;11.598;2022-08-20T01:02:57;19.90;60.00
4406;DHT22;2216;53.806;11.598;2022-08-20T01:05:25;19.90;60.10
4406;DHT22;2216;53.806;11.598;2022-08-20T01:07:52;19.90;59.90
4406;DHT22;2216;53.806;11.598;2022-08-20T01:10:25;19.90;59.90
4406;DHT22;2216;53.806;11.598;2022-08-20T01:12:54;19.90;59.90
4406;DHT22;2216;53.806;11.598;2022-08-20T01:15:23;19.90;59.90
4406;DHT22;2216;53.806;11.598;2022-08-20T01:17:54;19.80;59.80
4406;DHT22;2216;53.806;11.598;2022-08-20T01:20:29;19.80;59.80
4406;DHT22;2216;53.806;11.598;2022-08-20T01:25:53;19.80;59.80
4406;DHT22;2216;53.806;11.598;2022-08-20T01:28:25;19.80;59.80
4406;DHT22;2216;53.806;11.598;2022-08-20T01:30:54;19.80;59.80
4406;DHT22;2216;53.806;11.598;2022-08-20T01:33:21;19.80;60.10
4406;DHT22;2216;53.806;11.598;2022-08-20T01:35:48;19.80;59.90
4406;DHT22;2216;53.806;11.598;2022-08-20T01:38:16;19.70;59.90
4406;DHT22;2216;53.806;11.598;2022-08-20T01:43:24;19.70;59.90
4406;DHT22;2216;53.806;11.598;2022-08-20T01:45:51;19.80;60.00
4406;DHT22;2216;53.806;11.598;2022-08-20T01:48:17;19.70;59.90
4406;DHT22;2216;53.806;11.598;2022-08-20T01:50:48;19.70;60.00
4406;DHT22;2216;53.806;11.598;2022-08-20T01:53:24;19.70;60.10
4406;DHT22;2216;53.806;11.598;2022-08-20T01:55:53;19.70;60.00
4406;DHT22;2216;53.806;11.598;2022-08-20T01:58:19;19.60;59.90
4406;DHT22;2216;53.806;11.598;2022-08-20T02:00:46;19.70;59.90
4406;DHT22;2216;53.806;11.598;2022-08-20T02:03:11;19.60;59.90
4406;DHT22;2216;53.806;11.598;2022-08-20T02:05:37;19.60;59.90
4406;DHT22;2216;53.806;11.598;2022-08-20T02:08:04;19.60;59.90
4406;DHT22;2216;53.806;11.598;2022-08-20T02:10:30;19.60;59.90
4406;DHT22;2216;53.806;11.598;2022-08-20T02:12:57;19.50;59.90
4406;DHT22;2216;53.806;11.598;2022-08-20T02:15:24;19.50;59.90
4406;DHT22;2216;53.806;11.598;2022-08-20T02:17:49;19.50;59.80
4406;DHT22;2216;53.806;11.598;2022-08-20T02:20:19;19.50;59.90
4406;DHT22;2216;53.806;11.598;2022-08-20T02:22:54;19.50;59.90
4406;DHT22;2216;53.806;11.598;2022-08-20T02:25:24;19.50;59.90
4406;DHT22;2216;53.806;11.598;2022-08-20T02:27:54;19.50;59.90
4406;DHT22;2216;53.806;11.598;2022-08-20T02:30:29;19.50;60.00
4406;DHT22;2216;53.806;11.598;2022-08-20T02:33:02;19.40;59.90
4406;DHT22;2216;53.806;11.598;2022-08-20T02:35:30;19.40;60.00
4406;DHT22;2216;53.806;11.598;2022-08-20T02:37:57;19.40;60.00
4406;DHT22;2216;53.806;11.598;2022-08-20T02:40:25;19.40;60.10
4406;DHT22;2216;53.806;11.598;2022-08-20T02:42:53;19.40;60.00
4406;DHT22;2216;53.806;11.598;2022-08-20T02:45:20;19.30;60.00
4406;DHT22;2216;53.806;11.598;2022-08-20T02:47:48;19.30;59.90
4406;DHT22;2216;53.806;11.598;2022-08-20T02:50:16;19.30;60.00
4406;DHT22;2216;53.806;11.598;2022-08-20T02:52:43;19.30;60.00
4406;DHT22;2216;53.806;11.598;2022-08-20T02:55:10;19.30;60.00
4406;DHT22;2216;53.806;11.598;2022-08-20T02:57:37;19.30;60.00
4406;DHT22;2216;53.806;11.598;2022-08-20T03:00:15;19.20;60.00
4406;DHT22;2216;53.806;11.598;2022-08-20T03:02:43;19.30;60.10
4406;DHT22;2216;53.806;11.598;2022-08-20T03:05:10;19.20;59.90
4406;DHT22;2216;53.806;11.598;2022-08-20T03:07:45;19.20;59.90
4406;DHT22;2216;53.806;11.598;2022-08-20T03:10:12;19.20;60.00
4406;DHT22;2216;53.806;11.598;2022-08-20T03:12:39;19.20;60.00
4406;DHT22;2216;53.806;11.598;2022-08-20T03:15:08;19.20;60.10
4406;DHT22;2216;53.806;11.598;2022-08-20T03:17:35;19.00;59.90
4406;DHT22;2216;53.806;11.598;2022-08-20T03:20:03;19.10;60.00
4406;DHT22;2216;53.806;11.598;2022-08-20T03:22:30;19.10;60.00
4406;DHT22;2216;53.806;11.598;2022-08-20T03:24:56;19.10;60.00
4406;DHT22;2216;53.806;11.598;2022-08-20T03:27:22;19.10;60.00
4406;DHT22;2216;53.806;11.598;2022-08-20T03:29:47;19.10;60.00
4406;DHT22;2216;53.806;11.598;2022-08-20T03:32:13;19.10;60.00
4406;DHT22;2216;53.806;11.598;2022-08-20T03:34:39;19.00;60.00
4406;DHT22;2216;53.806;11.598;2022-08-20T03:37:04;19.10;60.10
4406;DHT22;2216;53.806;11.598;2022-08-20T03:39:30;19.10;60.00
4406;DHT22;2216;53.806;11.598;2022-08-20T03:41:56;19.00;60.10
4406;DHT22;2216;53.806;11.598;2022-08-20T03:44:21;19.00;60.00
4406;DHT22;2216;53.806;11.598;2022-08-20T03:46:47;19.00;60.00
4406;DHT22;2216;53.806;11.598;2022-08-20T03:49:13;19.00;60.00
4406;DHT22;2216;53.806;11.598;2022-08-20T03:51:39;19.00;60.00
4406;DHT22;2216;53.806;11.598;2022-08-20T03:54:04;19.00;60.00
4406;DHT22;2216;53.806;11.598;2022-08-20T03:56:30;19.00;60.10
4406;DHT22;2216;53.806;11.598;2022-08-20T03:58:56;18.90;60.00
4406;DHT22;2216;53.806;11.598;2022-08-20T04:01:22;18.90;60.00
4406;DHT22;2216;53.806;11.598;2022-08-20T04:03:47;18.90;60.00
4406;DHT22;2216;53.806;11.598;2022-08-20T04:06:13;18.90;60.00
4406;DHT22;2216;53.806;11.598;2022-08-20T04:08:39;18.90;60.00
4406;DHT22;2216;53.806;11.598;2022-08-20T04:11:06;18.90;60.00
4406;DHT22;2216;53.806;11.598;2022-08-20T04:13:32;18.90;60.10
4406;DHT22;2216;53.806;11.598;2022-08-20T04:16:00;18.80;60.10
4406;DHT22;2216;53.806;11.598;2022-08-20T04:18:28;18.80;60.10
4406;DHT22;2216;53.806;11.598;2022-08-20T04:20:54;18.90;60.20
4406;DHT22;2216;53.806;11.598;2022-08-20T04:23:21;18.80;60.20
4406;DHT22;2216;53.806;11.598;2022-08-20T04:25:47;18.80;60.20
4406;DHT22;2216;53.806;11.598;2022-08-20T04:28:21;18.80;60.20
4406;DHT22;2216;53.806;11.598;2022-08-20T04:30:58;18.80;60.20
4406;DHT22;2216;53.806;11.598;2022-08-20T04:33:26;18.80;60.10
4406;DHT22;2216;53.806;11.598;2022-08-20T04:35:57;18.80;60.10
4406;DHT22;2216;53.806;11.598;2022-08-20T04:38:28;18.70;60.10
4406;DHT22;2216;53.806;11.598;2022-08-20T04:40:54;18.70;60.20
4406;DHT22;2216;53.806;11.598;2022-08-20T04:43:29;18.70;60.20
4406;DHT22;2216;53.806;11.598;2022-08-20T04:45:59;18.70;60.20
4406;DHT22;2216;53.806;11.598;2022-08-20T04:48:31;18.70;60.20
4406;DHT22;2216;53.806;11.598;2022-08-20T04:50:57;18.70;60.30
4406;DHT22;2216;53.806;11.598;2022-08-20T04:53:25;18.70;60.30
4406;DHT22;2216;53.806;11.598;2022-08-20T04:55:53;18.70;60.40
4406;DHT22;2216;53.806;11.598;2022-08-20T04:58:32;18.70;60.30
4406;DHT22;2216;53.806;11.598;2022-08-20T05:01:02;18.70;60.50
4406;DHT22;2216;53.806;11.598;2022-08-20T05:03:32;18.70;60.40
4406;DHT22;2216;53.806;11.598;2022-08-20T05:05:59;18.70;60.40
4406;DHT22;2216;53.806;11.598;2022-08-20T05:08:28;18.70;60.60
4406;DHT22;2216;53.806;11.598;2022-08-20T05:10:54;18.80;60.40
4406;DHT22;2216;53.806;11.598;2022-08-20T05:13:22;18.80;60.60
4406;DHT22;2216;53.806;11.598;2022-08-20T05:15:47;18.80;60.50
4406;DHT22;2216;53.806;11.598;2022-08-20T05:18:16;18.80;60.50
4406;DHT22;2216;53.806;11.598;2022-08-20T05:20:45;18.80;60.90
4406;DHT22;2216;53.806;11.598;2022-08-20T05:23:12;18.80;60.90
4406;DHT22;2216;53.806;11.598;2022-08-20T05:25:40;18.90;61.10
4406;DHT22;2216;53.806;11.598;2022-08-20T05:28:15;18.90;61.00
4406;DHT22;2216;53.806;11.598;2022-08-20T05:30:44;19.00;61.10
4406;DHT22;2216;53.806;11.598;2022-08-20T05:33:11;19.00;60.90
4406;DHT22;2216;53.806;11.598;2022-08-20T05:35:40;19.00;61.00
4406;DHT22;2216;53.806;11.598;2022-08-20T05:38:09;19.10;61.00
4406;DHT22;2216;53.806;11.598;2022-08-20T05:40:37;19.10;61.00
4406;DHT22;2216;53.806;11.598;2022-08-20T05:43:04;19.10;60.90
4406;DHT22;2216;53.806;11.598;2022-08-20T05:45:31;19.10;60.80
4406;DHT22;2216;53.806;11.598;2022-08-20T05:47:58;19.00;60.80
4406;DHT22;2216;53.806;11.598;2022-08-20T05:50:28;19.30;60.90
4406;DHT22;2216;53.806;11.598;2022-08-20T05:52:54;19.30;60.90
4406;DHT22;2216;53.806;11.598;2022-08-20T05:55:19;19.30;61.00
4406;DHT22;2216;53.806;11.598;2022-08-20T05:57:46;19.40;61.00
4406;DHT22;2216;53.806;11.598;2022-08-20T06:00:13;19.40;61.10
4406;DHT22;2216;53.806;11.598;2022-08-20T06:02:39;19.50;61.10
4406;DHT22;2216;53.806;11.598;2022-08-20T06:05:24;19.60;61.30
4406;DHT22;2216;53.806;11.598;2022-08-20T06:07:51;19.60;61.20
4406;DHT22;2216;53.806;11.598;2022-08-20T06:10:17;19.70;61.30
4406;DHT22;2216;53.806;11.598;2022-08-20T06:12:43;19.80;61.20
4406;DHT22;2216;53.806;11.598;2022-08-20T06:15:10;19.90;61.90
4406;DHT22;2216;53.806;11.598;2022-08-20T06:17:37;19.90;61.10
4406;DHT22;2216;53.806;11.598;2022-08-20T06:20:06;20.00;61.90
4406;DHT22;2216;53.806;11.598;2022-08-20T06:22:33;20.00;61.10
4406;DHT22;2216;53.806;11.598;2022-08-20T06:24:59;20.00;61.10
4406;DHT22;2216;53.806;11.598;2022-08-20T06:27:25;20.10;61.30
4406;DHT22;2216;53.806;11.598;2022-08-20T06:29:52;20.20;61.50
4406;DHT22;2216;53.806;11.598;2022-08-20T06:32:19;20.30;61.50
4406;DHT22;2216;53.806;11.598;2022-08-20T06:34:47;20.50;61.50
4406;DHT22;2216;53.806;11.598;2022-08-20T06:37:18;20.60;61.80
4406;DHT22;2216;53.806;11.598;2022-08-20T06:39:46;20.70;61.60
4406;DHT22;2216;53.806;11.598;2022-08-20T06:42:11;20.80;61.40
4406;DHT22;2216;53.806;11.598;2022-08-20T06:44:37;20.90;61.30
4406;DHT22;2216;53.806;11.598;2022-08-20T06:47:04;21.00;61.40
4406;DHT22;2216;53.806;11.598;2022-08-20T06:49:34;21.00;61.10
4406;DHT22;2216;53.806;11.598;2022-08-20T06:52:02;21.20;61.50
4406;DHT22;2216;53.806;11.598;2022-08-20T06:54:29;21.30;61.10
4406;DHT22;2216;53.806;11.598;2022-08-20T06:56:55;21.30;60.90
4406;DHT22;2216;53.806;11.598;2022-08-20T06:59:20;21.40;60.90
4406;DHT22;2216;53.806;11.598;2022-08-20T07:01:46;21.50;61.10
4406;DHT22;2216;53.806;11.598;2022-08-20T07:04:14;21.60;61.10
4406;DHT22;2216;53.806;11.598;2022-08-20T07:06:41;21.70;61.10
4406;DHT22;2216;53.806;11.598;2022-08-20T07:09:08;21.80;62.00
4406;DHT22;2216;53.806;11.598;2022-08-20T07:11:34;21.90;61.30
4406;DHT22;2216;53.806;11.598;2022-08-20T07:14:00;22.10;61.20
4406;DHT22;2216;53.806;11.598;2022-08-20T07:16:30;22.10;61.00
4406;DHT22;2216;53.806;11.598;2022-08-20T07:18:56;22.20;61.00
4406;DHT22;2216;53.806;11.598;2022-08-20T07:21:23;22.30;60.80
4406;DHT22;2216;53.806;11.598;2022-08-20T07:23:48;22.40;60.90
4406;DHT22;2216;53.806;11.598;2022-08-20T07:26:14;22.50;60.70
4406;DHT22;2216;53.806;11.598;2022-08-20T07:28:40;22.50;60.80
4406;DHT22;2216;53.806;11.598;2022-08-20T07:31:06;22.60;60.60
4406;DHT22;2216;53.806;11.598;2022-08-20T07:33:50;22.60;60.30
4406;DHT22;2216;53.806;11.598;2022-08-20T07:36:16;22.70;60.40
4406;DHT22;2216;53.806;11.598;2022-08-20T07:38:42;22.70;60.30
4406;DHT22;2216;53.806;11.598;2022-08-20T07:41:12;22.80;60.30
4406;DHT22;2216;53.806;11.598;2022-08-20T07:43:41;22.80;60.40
4406;DHT22;2216;53.806;11.598;2022-08-20T07:46:10;22.80;60.20
4406;DHT22;2216;53.806;11.598;2022-08-20T07:48:38;22.90;60.20
4406;DHT22;2216;53.806;11.598;2022-08-20T07:51:07;22.90;60.00
4406;DHT22;2216;53.806;11.598;2022-08-20T07:53:35;23.00;60.10
4406;DHT22;2216;53.806;11.598;2022-08-20T07:56:08;22.90;60.70
4406;DHT22;2216;53.806;11.598;2022-08-20T07:58:38;23.00;60.30
4406;DHT22;2216;53.806;11.598;2022-08-20T08:01:07;23.00;60.30
4406;DHT22;2216;53.806;11.598;2022-08-20T08:03:34;23.00;60.10
4406;DHT22;2216;53.806;11.598;2022-08-20T08:06:02;23.10;60.30
4406;DHT22;2216;53.806;11.598;2022-08-20T08:08:28;23.10;60.30
4406;DHT22;2216;53.806;11.598;2022-08-20T08:10:59;23.20;60.30
4406;DHT22;2216;53.806;11.598;2022-08-20T08:13:28;23.20;60.40
4406;DHT22;2216;53.806;11.598;2022-08-20T08:15:58;23.30;60.40
4406;DHT22;2216;53.806;11.598;2022-08-20T08:18:30;23.30;60.50
4406;DHT22;2216;53.806;11.598;2022-08-20T08:21:17;23.50;60.60
4406;DHT22;2216;53.806;11.598;2022-08-20T08:23:43;23.60;61.50
4406;DHT22;2216;53.806;11.598;2022-08-20T08:26:14;23.60;60.70
4406;DHT22;2216;53.806;11.598;2022-08-20T08:28:41;23.80;60.90
4406;DHT22;2216;53.806;11.598;2022-08-20T08:31:09;23.90;60.90
4406;DHT22;2216;53.806;11.598;2022-08-20T08:33:35;24.00;60.90
4406;DHT22;2216;53.806;11.598;2022-08-20T08:36:04;24.20;60.80
4406;DHT22;2216;53.806;11.598;2022-08-20T08:38:34;24.30;60.90
4406;DHT22;2216;53.806;11.598;2022-08-20T08:41:22;24.50;60.90
4406;DHT22;2216;53.806;11.598;2022-08-20T08:44:21;24.50;60.60
4406;DHT22;2216;53.806;11.598;2022-08-20T08:46:55;24.60;60.00
4406;DHT22;2216;53.806;11.598;2022-08-20T08:49:26;24.70;60.00
4406;DHT22;2216;53.806;11.598;2022-08-20T08:52:15;24.70;59.90
4406;DHT22;2216;53.806;11.598;2022-08-20T08:54:48;24.70;59.80
4406;DHT22;2216;53.806;11.598;2022-08-20T08:57:16;24.70;59.80
4406;DHT22;2216;53.806;11.598;2022-08-20T08:59:55;24.70;59.70
4406;DHT22;2216;53.806;11.598;2022-08-20T09:02:25;24.70;59.60
4406;DHT22;2216;53.806;11.598;2022-08-20T09:04:54;24.70;59.70
4406;DHT22;2216;53.806;11.598;2022-08-20T09:07:23;24.80;60.00
4406;DHT22;2216;53.806;11.598;2022-08-20T09:09:50;24.80;60.00
4406;DHT22;2216;53.806;11.598;2022-08-20T09:12:19;24.90;60.00
4406;DHT22;2216;53.806;11.598;2022-08-20T09:14:47;25.00;60.00
4406;DHT22;2216;53.806;11.598;2022-08-20T09:17:15;25.10;59.80
4406;DHT22;2216;53.806;11.598;2022-08-20T09:19:43;25.10;59.70
4406;DHT22;2216;53.806;11.598;2022-08-20T09:22:14;25.20;59.60
4406;DHT22;2216;53.806;11.598;2022-08-20T09:24:43;25.10;59.50
4406;DHT22;2216;53.806;11.598;2022-08-20T09:27:09;25.20;59.70
4406;DHT22;2216;53.806;11.598;2022-08-20T09:29:36;25.30;59.90
4406;DHT22;2216;53.806;11.598;2022-08-20T09:32:15;25.40;59.90
4406;DHT22;2216;53.806;11.598;2022-08-20T09:34:45;25.50;59.70
4406;DHT22;2216;53.806;11.598;2022-08-20T09:37:13;25.60;59.50
4406;DHT22;2216;53.806;11.598;2022-08-20T09:39:39;25.60;59.40
4406;DHT22;2216;53.806;11.598;2022-08-20T09:42:17;25.60;59.50
4406;DHT22;2216;53.806;11.598;2022-08-20T09:44:46;25.70;59.80
4406;DHT22;2216;53.806;11.598;2022-08-20T09:47:11;25.80;59.90
4406;DHT22;2216;53.806;11.598;2022-08-20T09:49:37;26.00;60.00
4406;DHT22;2216;53.806;11.598;2022-08-20T09:52:09;26.10;59.70
4406;DHT22;2216;53.806;11.598;2022-08-20T09:54:39;26.20;59.50
4406;DHT22;2216;53.806;11.598;2022-08-20T09:57:06;26.30;59.50
4406;DHT22;2216;53.806;11.598;2022-08-20T09:59:35;26.40;59.50
4406;DHT22;2216;53.806;11.598;2022-08-20T10:02:01;26.40;59.20
4406;DHT22;2216;53.806;11.598;2022-08-20T10:04:28;26.40;58.90
4406;DHT22;2216;53.806;11.598;2022-08-20T10:06:54;26.40;58.70
4406;DHT22;2216;53.806;11.598;2022-08-20T10:09:20;26.40;58.70
4406;DHT22;2216;53.806;11.598;2022-08-20T10:11:46;26.40;58.90
4406;DHT22;2216;53.806;11.598;2022-08-20T10:14:11;26.40;59.20
4406;DHT22;2216;53.806;11.598;2022-08-20T10:16:37;26.50;59.30
4406;DHT22;2216;53.806;11.598;2022-08-20T10:19:03;26.60;59.30
4406;DHT22;2216;53.806;11.598;2022-08-20T10:21:31;26.70;59.10
4406;DHT22;2216;53.806;11.598;2022-08-20T10:23:57;26.80;59.00
4406;DHT22;2216;53.806;11.598;2022-08-20T10:26:22;26.90;59.00
4406;DHT22;2216;53.806;11.598;2022-08-20T10:28:48;26.90;59.10
4406;DHT22;2216;53.806;11.598;2022-08-20T10:31:14;27.10;59.10
4406;DHT22;2216;53.806;11.598;2022-08-20T10:33:40;27.20;59.00
4406;DHT22;2216;53.806;11.598;2022-08-20T10:36:12;27.30;58.70
4406;DHT22;2216;53.806;11.598;2022-08-20T10:38:41;27.40;58.50
4406;DHT22;2216;53.806;11.598;2022-08-20T10:41:09;27.50;58.40
4406;DHT22;2216;53.806;11.598;2022-08-20T10:43:35;27.60;58.30
4406;DHT22;2216;53.806;11.598;2022-08-20T10:46:01;27.80;58.90
4406;DHT22;2216;53.806;11.598;2022-08-20T10:48:27;27.90;58.80
4406;DHT22;2216;53.806;11.598;2022-08-20T10:50:53;28.10;58.70
4406;DHT22;2216;53.806;11.598;2022-08-20T10:53:19;28.20;58.50
4406;DHT22;2216;53.806;11.598;2022-08-20T10:55:45;28.40;58.60
4406;DHT22;2216;53.806;11.598;2022-08-20T10:58:11;28.50;58.50
4406;DHT22;2216;53.806;11.598;2022-08-20T11:00:38;28.70;57.90
4406;DHT22;2216;53.806;11.598;2022-08-20T11:03:04;28.80;57.70
4406;DHT22;2216;53.806;11.598;2022-08-20T11:05:30;28.90;57.90
4406;DHT22;2216;53.806;11.598;2022-08-20T11:07:56;28.90;57.70
4406;DHT22;2216;53.806;11.598;2022-08-20T11:10:25;29.00;57.80
4406;DHT22;2216;53.806;11.598;2022-08-20T11:12:53;29.00;57.60
4406;DHT22;2216;53.806;11.598;2022-08-20T11:15:19;29.00;57.00
4406;DHT22;2216;53.806;11.598;2022-08-20T11:17:46;29.00;57.00
4406;DHT22;2216;53.806;11.598;2022-08-20T11:20:14;28.90;57.30
4406;DHT22;2216;53.806;11.598;2022-08-20T11:22:41;28.90;57.40
4406;DHT22;2216;53.806;11.598;2022-08-20T11:25:07;28.90;57.40
4406;DHT22;2216;53.806;11.598;2022-08-20T11:27:37;28.90;57.20
4406;DHT22;2216;53.806;11.598;2022-08-20T11:30:09;28.90;57.20
4406;DHT22;2216;53.806;11.598;2022-08-20T11:32:37;28.90;57.00
4406;DHT22;2216;53.806;11.598;2022-08-20T11:35:04;29.00;57.20
4406;DHT22;2216;53.806;11.598;2022-08-20T11:37:29;29.00;57.40
4406;DHT22;2216;53.806;11.598;2022-08-20T11:39:55;29.10;57.40
4406;DHT22;2216;53.806;11.598;2022-08-20T11:42:21;29.20;57.10
4406;DHT22;2216;53.806;11.598;2022-08-20T11:44:47;29.20;57.10
4406;DHT22;2216;53.806;11.598;2022-08-20T11:47:24;29.20;56.80
4406;DHT22;2216;53.806;11.598;2022-08-20T11:49:57;29.10;56.70
4406;DHT22;2216;53.806;11.598;2022-08-20T11:52:29;29.00;56.50
4406;DHT22;2216;53.806;11.598;2022-08-20T11:54:56;29.00;56.50
4406;DHT22;2216;53.806;11.598;2022-08-20T11:57:25;28.90;56.70
4406;DHT22;2216;53.806;11.598;2022-08-20T11:59:53;28.90;56.50
4406;DHT22;2216;53.806;11.598;2022-08-20T12:02:19;28.90;56.60
4406;DHT22;2216;53.806;11.598;2022-08-20T12:04:46;28.90;56.70
4406;DHT22;2216;53.806;11.598;2022-08-20T12:07:18;28.80;56.70
4406;DHT22;2216;53.806;11.598;2022-08-20T12:09:46;28.80;56.40
4406;DHT22;2216;53.806;11.598;2022-08-20T12:12:12;28.80;56.10
4406;DHT22;2216;53.806;11.598;2022-08-20T12:14:39;28.60;56.10
4406;DHT22;2216;53.806;11.598;2022-08-20T12:17:13;28.50;56.10
4406;DHT22;2216;53.806;11.598;2022-08-20T12:19:46;28.40;55.80
4406;DHT22;2216;53.806;11.598;2022-08-20T12:22:12;28.40;56.00
4406;DHT22;2216;53.806;11.598;2022-08-20T12:24:38;28.30;56.70
4406;DHT22;2216;53.806;11.598;2022-08-20T12:27:19;28.20;56.00
4406;DHT22;2216;53.806;11.598;2022-08-20T12:29:48;28.10;56.00
4406;DHT22;2216;53.806;11.598;2022-08-20T12:32:16;28.00;56.10
4406;DHT22;2216;53.806;11.598;2022-08-20T12:34:42;28.00;56.30
4406;DHT22;2216;53.806;11.598;2022-08-20T12:37:11;28.00;56.10
4406;DHT22;2216;53.806;11.598;2022-08-20T12:39:41;27.90;56.10
4406;DHT22;2216;53.806;11.598;2022-08-20T12:42:09;27.90;56.80
4406;DHT22;2216;53.806;11.598;2022-08-20T12:44:36;27.80;55.60
4406;DHT22;2216;53.806;11.598;2022-08-20T12:47:12;27.80;55.70
4406;DHT22;2216;53.806;11.598;2022-08-20T12:49:49;27.70;55.90
4406;DHT22;2216;53.806;11.598;2022-08-20T12:52:19;27.60;55.60
4406;DHT22;2216;53.806;11.598;2022-08-20T12:54:45;27.50;55.60
4406;DHT22;2216;53.806;11.598;2022-08-20T12:57:24;27.30;55.70
4406;DHT22;2216;53.806;11.598;2022-08-20T12:59:55;27.20;55.30
4406;DHT22;2216;53.806;11.598;2022-08-20T13:02:21;27.10;55.50
4406;DHT22;2216;53.806;11.598;2022-08-20T13:04:47;26.90;55.50
4406;DHT22;2216;53.806;11.598;2022-08-20T13:07:14;26.80;55.60
4406;DHT22;2216;53.806;11.598;2022-08-20T13:09:40;26.60;55.40
4406;DHT22;2216;53.806;11.598;2022-08-20T13:12:07;26.50;55.40
4406;DHT22;2216;53.806;11.598;2022-08-20T13:14:34;26.40;55.50
4406;DHT22;2216;53.806;11.598;2022-08-20T13:17:01;26.20;55.60
4406;DHT22;2216;53.806;11.598;2022-08-20T13:19:28;26.10;55.60
4406;DHT22;2216;53.806;11.598;2022-08-20T13:21:54;26.00;55.70
4406;DHT22;2216;53.806;11.598;2022-08-20T13:24:21;25.90;55.60
4406;DHT22;2216;53.806;11.598;2022-08-20T13:26:47;25.70;55.60
4406;DHT22;2216;53.806;11.598;2022-08-20T13:29:14;25.70;55.80
4406;DHT22;2216;53.806;11.598;2022-08-20T13:31:41;25.60;55.90
4406;DHT22;2216;53.806;11.598;2022-08-20T13:34:07;25.50;55.90
4406;DHT22;2216;53.806;11.598;2022-08-20T13:36:34;25.40;55.90
4406;DHT22;2216;53.806;11.598;2022-08-20T13:39:00;25.30;56.00
4406;DHT22;2216;53.806;11.598;2022-08-20T13:41:27;25.20;56.00
4406;DHT22;2216;53.806;11.598;2022-08-20T13:43:53;25.20;56.10
4406;DHT22;2216;53.806;11.598;2022-08-20T13:46:19;25.20;56.20
4406;DHT22;2216;53.806;11.598;2022-08-20T13:48:45;25.20;56.30
4406;DHT22;2216;53.806;11.598;2022-08-20T13:51:11;25.20;56.40
4406;DHT22;2216;53.806;11.598;2022-08-20T13:53:36;25.20;56.50
4406;DHT22;2216;53.806;11.598;2022-08-20T13:56:02;25.20;56.60
4406;DHT22;2216;53.806;11.598;2022-08-20T13:58:28;25.30;56.70
4406;DHT22;2216;53.806;11.598;2022-08-20T14:00:54;25.40;56.80
4406;DHT22;2216;53.806;11.598;2022-08-20T14:03:19;25.40;56.80
4406;DHT22;2216;53.806;11.598;2022-08-20T14:05:45;25.50;56.90
4406;DHT22;2216;53.806;11.598;2022-08-20T14:08:17;25.70;56.90
4406;DHT22;2216;53.806;11.598;2022-08-20T14:10:46;25.80;56.90
4406;DHT22;2216;53.806;11.598;2022-08-20T14:13:19;25.90;56.80
4406;DHT22;2216;53.806;11.598;2022-08-20T14:15:47;25.90;56.60
4406;DHT22;2216;53.806;11.598;2022-08-20T14:18:14;26.00;56.60
4406;DHT22;2216;53.806;11.598;2022-08-20T14:20:40;26.00;56.60
4406;DHT22;2216;53.806;11.598;2022-08-20T14:23:07;26.00;56.50
4406;DHT22;2216;53.806;11.598;2022-08-20T14:25:33;26.10;56.50
4406;DHT22;2216;53.806;11.598;2022-08-20T14:28:08;26.10;56.50
4406;DHT22;2216;53.806;11.598;2022-08-20T14:30:36;26.10;56.40
4406;DHT22;2216;53.806;11.598;2022-08-20T14:33:01;26.20;56.30
4406;DHT22;2216;53.806;11.598;2022-08-20T14:35:27;26.20;56.30
4406;DHT22;2216;53.806;11.598;2022-08-20T14:37:53;26.20;56.20
4406;DHT22;2216;53.806;11.598;2022-08-20T14:40:24;26.20;56.00
4406;DHT22;2216;53.806;11.598;2022-08-20T14:42:51;26.20;56.00
4406;DHT22;2216;53.806;11.598;2022-08-20T14:45:17;26.20;55.90
4406;DHT22;2216;53.806;11.598;2022-08-20T14:47:52;26.10;55.80
4406;DHT22;2216;53.806;11.598;2022-08-20T14:50:24;26.00;55.70
4406;DHT22;2216;53.806;11.598;2022-08-20T14:52:52;26.00;55.80
4406;DHT22;2216;53.806;11.598;2022-08-20T14:55:20;26.00;55.80
4406;DHT22;2216;53.806;11.598;2022-08-20T14:57:49;25.90;55.80
4406;DHT22;2216;53.806;11.598;2022-08-20T15:00:22;25.80;55.80
4406;DHT22;2216;53.806;11.598;2022-08-20T15:02:49;25.80;55.90
4406;DHT22;2216;53.806;11.598;2022-08-20T15:05:16;25.80;56.00
4406;DHT22;2216;53.806;11.598;2022-08-20T15:07:45;25.70;55.90
4406;DHT22;2216;53.806;11.598;2022-08-20T15:10:18;25.70;55.90
4406;DHT22;2216;53.806;11.598;2022-08-20T15:12:55;25.80;56.00
4406;DHT22;2216;53.806;11.598;2022-08-20T15:15:22;25.80;55.90
4406;DHT22;2216;53.806;11.598;2022-08-20T15:17:51;25.70;55.90
4406;DHT22;2216;53.806;11.598;2022-08-20T15:20:26;25.80;56.10
4406;DHT22;2216;53.806;11.598;2022-08-20T15:22:54;25.80;56.00
4406;DHT22;2216;53.806;11.598;2022-08-20T15:25:24;25.80;56.00
4406;DHT22;2216;53.806;11.598;2022-08-20T15:27:55;25.80;56.00
4406;DHT22;2216;53.806;11.598;2022-08-20T15:30:22;25.80;56.00
4406;DHT22;2216;53.806;11.598;2022-08-20T15:32:49;25.80;55.80
4406;DHT22;2216;53.806;11.598;2022-08-20T15:35:16;25.80;55.90
4406;DHT22;2216;53.806;11.598;2022-08-20T15:37:45;25.80;55.80
4406;DHT22;2216;53.806;11.598;2022-08-20T15:40:17;25.80;55.70
4406;DHT22;2216;53.806;11.598;2022-08-20T15:42:45;25.80;55.80
4406;DHT22;2216;53.806;11.598;2022-08-20T15:45:11;25.80;55.80
4406;DHT22;2216;53.806;11.598;2022-08-20T15:50:29;25.80;55.70
4406;DHT22;2216;53.806;11.598;2022-08-20T15:53:04;25.80;55.50
4406;DHT22;2216;53.806;11.598;2022-08-20T15:55:35;25.80;55.60
4406;DHT22;2216;53.806;11.598;2022-08-20T15:58:17;25.80;55.70
4406;DHT22;2216;53.806;11.598;2022-08-20T16:01:04;25.80;55.20